Terminal Aerodrome Forecast
Issued by NWS

Home | Current Version | Previous Version | Text Only | Print | Product List | Glossary On
Versions: 1 2 3 4 5 6 7 8 9 10 11 12 13 14 15 16
665
FTUS43 KFGF 062320
TAFDVL
TAF
KDVL 062320Z 0700/0724 26020G27KT P6SM BKN120
     FM070400 30025G32KT P6SM BKN025 OVC050
     FM070600 29027G35KT 2SM -SN BLSN OVC020
     FM070900 31030G45KT 1/4SM -SN BLSN BKN008=

USA.gov is the U.S. government's official web portal to all federal, state and local government web resources and services.